Terminal Aerodrome Forecast
Issued by NWS Mt. Holly, NJ

Home | Current Version | Previous Version | Text Only | Print | Product List | Glossary On
Versions: 1 2 3 4 5 6 7 8 9 10 11 12 13 14 15 16
599
FTUS41 KPHI 221130
TAFRDG
TAF
KRDG 221130Z 2212/2312 30009KT P6SM SKC
     FM221400 30010G18KT P6SM SKC
     FM221700 28015G24KT P6SM SCT060
      TEMPO 2219/2221 30020G32KT -SHRA BKN060
     FM222300 30011KT P6SM SKC
     FM230300 33009G18KT P6SM SKC
     FM230800 30003KT P6SM SKC=

USA.gov is the U.S. government's official web portal to all federal, state and local government web resources and services.